sensor_id;sensor_type;location;lat;lon;timestamp;P1;durP1;ratioP1;P2;durP2;ratioP2
57385;SDS011;71829;56.976;21.958;2024-03-29T00:01:57;7.28;;;2.33;;
57385;SDS011;71829;56.976;21.958;2024-03-29T00:04:27;9.40;;;4.75;;
57385;SDS011;71829;56.976;21.958;2024-03-29T00:06:54;9.45;;;3.25;;
57385;SDS011;71829;56.976;21.958;2024-03-29T00:09:20;8.80;;;3.65;;
57385;SDS011;71829;56.976;21.958;2024-03-29T00:11:47;10.85;;;4.32;;
57385;SDS011;71829;56.976;21.958;2024-03-29T00:14:13;14.18;;;5.72;;
57385;SDS011;71829;56.976;21.958;2024-03-29T00:16:58;17.27;;;8.75;;
57385;SDS011;71829;56.976;21.958;2024-03-29T00:19:24;19.52;;;8.70;;
57385;SDS011;71829;56.976;21.958;2024-03-29T00:21:51;17.55;;;9.38;;
57385;SDS011;71829;56.976;21.958;2024-03-29T00:24:17;16.45;;;7.93;;
57385;SDS011;71829;56.976;21.958;2024-03-29T00:26:44;17.15;;;8.55;;
57385;SDS011;71829;56.976;21.958;2024-03-29T00:29:10;20.90;;;8.57;;
57385;SDS011;71829;56.976;21.958;2024-03-29T00:31:36;20.83;;;9.45;;
57385;SDS011;71829;56.976;21.958;2024-03-29T00:34:03;21.30;;;10.00;;
57385;SDS011;71829;56.976;21.958;2024-03-29T00:36:29;18.50;;;8.93;;
57385;SDS011;71829;56.976;21.958;2024-03-29T00:38:55;22.27;;;9.05;;
57385;SDS011;71829;56.976;21.958;2024-03-29T00:41:22;21.92;;;9.25;;
57385;SDS011;71829;56.976;21.958;2024-03-29T00:43:48;20.42;;;9.02;;
57385;SDS011;71829;56.976;21.958;2024-03-29T00:46:15;21.35;;;9.43;;
57385;SDS011;71829;56.976;21.958;2024-03-29T00:48:41;21.30;;;10.00;;
57385;SDS011;71829;56.976;21.958;2024-03-29T00:51:09;22.48;;;10.40;;
57385;SDS011;71829;56.976;21.958;2024-03-29T00:53:35;22.50;;;9.43;;
57385;SDS011;71829;56.976;21.958;2024-03-29T00:56:02;23.55;;;10.55;;
57385;SDS011;71829;56.976;21.958;2024-03-29T00:58:28;22.67;;;10.55;;
57385;SDS011;71829;56.976;21.958;2024-03-29T01:00:55;20.45;;;10.43;;
57385;SDS011;71829;56.976;21.958;2024-03-29T01:03:21;23.85;;;9.63;;
57385;SDS011;71829;56.976;21.958;2024-03-29T01:05:47;21.52;;;8.82;;
57385;SDS011;71829;56.976;21.958;2024-03-29T01:08:14;21.77;;;9.23;;
57385;SDS011;71829;56.976;21.958;2024-03-29T01:10:40;20.17;;;9.25;;
57385;SDS011;71829;56.976;21.958;2024-03-29T01:13:25;23.60;;;9.50;;
57385;SDS011;71829;56.976;21.958;2024-03-29T01:16:10;19.80;;;8.23;;
57385;SDS011;71829;56.976;21.958;2024-03-29T01:18:54;19.67;;;8.10;;
57385;SDS011;71829;56.976;21.958;2024-03-29T01:21:21;20.67;;;7.68;;
57385;SDS011;71829;56.976;21.958;2024-03-29T01:23:47;19.95;;;8.65;;
57385;SDS011;71829;56.976;21.958;2024-03-29T01:26:14;18.55;;;7.72;;
57385;SDS011;71829;56.976;21.958;2024-03-29T01:28:42;20.52;;;7.55;;
57385;SDS011;71829;56.976;21.958;2024-03-29T01:31:09;18.75;;;7.95;;
57385;SDS011;71829;56.976;21.958;2024-03-29T01:33:36;16.40;;;6.90;;
57385;SDS011;71829;56.976;21.958;2024-03-29T01:36:03;16.65;;;7.22;;
57385;SDS011;71829;56.976;21.958;2024-03-29T01:38:30;14.82;;;6.55;;
57385;SDS011;71829;56.976;21.958;2024-03-29T01:40:56;16.23;;;7.20;;
57385;SDS011;71829;56.976;21.958;2024-03-29T01:43:23;15.80;;;6.72;;
57385;SDS011;71829;56.976;21.958;2024-03-29T01:45:51;16.55;;;7.00;;
57385;SDS011;71829;56.976;21.958;2024-03-29T01:48:18;18.02;;;6.65;;
57385;SDS011;71829;56.976;21.958;2024-03-29T01:50:45;16.67;;;6.38;;
57385;SDS011;71829;56.976;21.958;2024-03-29T01:53:11;17.85;;;7.35;;
57385;SDS011;71829;56.976;21.958;2024-03-29T01:55:38;16.25;;;6.40;;
57385;SDS011;71829;56.976;21.958;2024-03-29T01:58:04;15.60;;;6.22;;
57385;SDS011;71829;56.976;21.958;2024-03-29T02:00:32;17.35;;;6.90;;
57385;SDS011;71829;56.976;21.958;2024-03-29T02:02:59;16.77;;;6.20;;
57385;SDS011;71829;56.976;21.958;2024-03-29T02:05:25;18.02;;;6.70;;
57385;SDS011;71829;56.976;21.958;2024-03-29T02:07:53;21.38;;;7.97;;
57385;SDS011;71829;56.976;21.958;2024-03-29T02:10:20;15.80;;;4.78;;
57385;SDS011;71829;56.976;21.958;2024-03-29T02:12:47;15.27;;;4.88;;
57385;SDS011;71829;56.976;21.958;2024-03-29T02:15:16;11.50;;;3.85;;
57385;SDS011;71829;56.976;21.958;2024-03-29T02:18:01;12.25;;;4.25;;
57385;SDS011;71829;56.976;21.958;2024-03-29T02:20:27;11.85;;;3.60;;
57385;SDS011;71829;56.976;21.958;2024-03-29T02:23:01;11.13;;;3.35;;
57385;SDS011;71829;56.976;21.958;2024-03-29T02:25:28;12.23;;;3.92;;
57385;SDS011;71829;56.976;21.958;2024-03-29T02:27:55;9.70;;;3.42;;
57385;SDS011;71829;56.976;21.958;2024-03-29T02:30:21;11.45;;;3.97;;
57385;SDS011;71829;56.976;21.958;2024-03-29T02:33:06;11.02;;;3.72;;
57385;SDS011;71829;56.976;21.958;2024-03-29T02:35:32;13.55;;;4.35;;
57385;SDS011;71829;56.976;21.958;2024-03-29T02:37:59;10.05;;;3.63;;
57385;SDS011;71829;56.976;21.958;2024-03-29T02:40:43;15.98;;;5.68;;
57385;SDS011;71829;56.976;21.958;2024-03-29T02:43:28;13.60;;;5.45;;
57385;SDS011;71829;56.976;21.958;2024-03-29T02:45:54;14.70;;;5.63;;
57385;SDS011;71829;56.976;21.958;2024-03-29T02:48:21;16.10;;;6.03;;
57385;SDS011;71829;56.976;21.958;2024-03-29T02:50:47;16.52;;;6.28;;
57385;SDS011;71829;56.976;21.958;2024-03-29T02:53:14;15.23;;;5.05;;
57385;SDS011;71829;56.976;21.958;2024-03-29T02:55:41;15.82;;;5.82;;
57385;SDS011;71829;56.976;21.958;2024-03-29T02:58:07;15.82;;;6.30;;
57385;SDS011;71829;56.976;21.958;2024-03-29T03:00:52;16.20;;;5.28;;
57385;SDS011;71829;56.976;21.958;2024-03-29T03:03:18;15.10;;;5.82;;
57385;SDS011;71829;56.976;21.958;2024-03-29T03:05:44;14.98;;;5.25;;
57385;SDS011;71829;56.976;21.958;2024-03-29T03:08:11;14.95;;;6.22;;
57385;SDS011;71829;56.976;21.958;2024-03-29T03:10:56;17.25;;;5.45;;
57385;SDS011;71829;56.976;21.958;2024-03-29T03:13:27;15.75;;;5.78;;
57385;SDS011;71829;56.976;21.958;2024-03-29T03:15:55;17.33;;;5.82;;
57385;SDS011;71829;56.976;21.958;2024-03-29T03:18:21;14.23;;;5.60;;
57385;SDS011;71829;56.976;21.958;2024-03-29T03:20:51;13.50;;;4.55;;
57385;SDS011;71829;56.976;21.958;2024-03-29T03:23:18;16.05;;;5.25;;
57385;SDS011;71829;56.976;21.958;2024-03-29T03:25:44;15.52;;;5.38;;
57385;SDS011;71829;56.976;21.958;2024-03-29T03:28:11;14.70;;;6.03;;
57385;SDS011;71829;56.976;21.958;2024-03-29T03:30:38;16.48;;;5.25;;
57385;SDS011;71829;56.976;21.958;2024-03-29T03:33:23;14.30;;;4.95;;
57385;SDS011;71829;56.976;21.958;2024-03-29T03:35:50;14.38;;;5.22;;
57385;SDS011;71829;56.976;21.958;2024-03-29T03:38:26;13.73;;;4.97;;
57385;SDS011;71829;56.976;21.958;2024-03-29T03:40:52;14.25;;;5.07;;
57385;SDS011;71829;56.976;21.958;2024-03-29T03:43:18;13.23;;;5.10;;
57385;SDS011;71829;56.976;21.958;2024-03-29T03:45:45;13.35;;;5.55;;
57385;SDS011;71829;56.976;21.958;2024-03-29T03:48:13;12.52;;;4.75;;
57385;SDS011;71829;56.976;21.958;2024-03-29T03:50:40;17.08;;;5.95;;
57385;SDS011;71829;56.976;21.958;2024-03-29T03:53:07;14.50;;;5.43;;
57385;SDS011;71829;56.976;21.958;2024-03-29T03:55:36;14.10;;;5.30;;
57385;SDS011;71829;56.976;21.958;2024-03-29T03:58:03;15.70;;;5.13;;
57385;SDS011;71829;56.976;21.958;2024-03-29T04:00:30;16.75;;;7.03;;
57385;SDS011;71829;56.976;21.958;2024-03-29T04:02:56;14.82;;;5.55;;
57385;SDS011;71829;56.976;21.958;2024-03-29T04:05:22;13.90;;;4.72;;
57385;SDS011;71829;56.976;21.958;2024-03-29T04:08:08;10.95;;;5.03;;
57385;SDS011;71829;56.976;21.958;2024-03-29T04:10:53;18.05;;;6.90;;
57385;SDS011;71829;56.976;21.958;2024-03-29T04:13:20;15.43;;;6.30;;
57385;SDS011;71829;56.976;21.958;2024-03-29T04:15:48;17.83;;;6.18;;
57385;SDS011;71829;56.976;21.958;2024-03-29T04:18:16;16.77;;;6.03;;
57385;SDS011;71829;56.976;21.958;2024-03-29T04:20:43;16.08;;;5.93;;
57385;SDS011;71829;56.976;21.958;2024-03-29T04:23:10;16.10;;;6.28;;
57385;SDS011;71829;56.976;21.958;2024-03-29T04:25:36;17.92;;;7.53;;
57385;SDS011;71829;56.976;21.958;2024-03-29T04:28:03;16.95;;;6.53;;
57385;SDS011;71829;56.976;21.958;2024-03-29T04:30:29;16.95;;;6.20;;
57385;SDS011;71829;56.976;21.958;2024-03-29T04:32:56;17.58;;;6.35;;
57385;SDS011;71829;56.976;21.958;2024-03-29T04:35:22;15.77;;;5.78;;
57385;SDS011;71829;56.976;21.958;2024-03-29T04:37:54;16.67;;;6.97;;
57385;SDS011;71829;56.976;21.958;2024-03-29T04:40:21;15.98;;;6.28;;
57385;SDS011;71829;56.976;21.958;2024-03-29T04:42:47;17.60;;;7.55;;
57385;SDS011;71829;56.976;21.958;2024-03-29T04:45:13;15.45;;;6.50;;
57385;SDS011;71829;56.976;21.958;2024-03-29T04:47:40;17.63;;;7.10;;
57385;SDS011;71829;56.976;21.958;2024-03-29T04:50:06;15.93;;;6.57;;
57385;SDS011;71829;56.976;21.958;2024-03-29T04:52:33;18.38;;;7.35;;
57385;SDS011;71829;56.976;21.958;2024-03-29T04:55:03;17.00;;;7.15;;
57385;SDS011;71829;56.976;21.958;2024-03-29T04:59:56;18.38;;;6.65;;
57385;SDS011;71829;56.976;21.958;2024-03-29T05:02:26;17.60;;;6.88;;
57385;SDS011;71829;56.976;21.958;2024-03-29T05:04:52;18.15;;;6.82;;
57385;SDS011;71829;56.976;21.958;2024-03-29T05:07:19;16.58;;;6.72;;
57385;SDS011;71829;56.976;21.958;2024-03-29T05:09:45;16.70;;;6.95;;
57385;SDS011;71829;56.976;21.958;2024-03-29T05:14:45;21.13;;;7.10;;
57385;SDS011;71829;56.976;21.958;2024-03-29T05:17:13;17.67;;;8.18;;
57385;SDS011;71829;56.976;21.958;2024-03-29T05:19:40;16.42;;;7.35;;
57385;SDS011;71829;56.976;21.958;2024-03-29T05:22:07;18.20;;;7.25;;
57385;SDS011;71829;56.976;21.958;2024-03-29T05:24:34;16.75;;;6.40;;
57385;SDS011;71829;56.976;21.958;2024-03-29T05:27:01;17.30;;;7.15;;
57385;SDS011;71829;56.976;21.958;2024-03-29T05:29:35;15.70;;;5.80;;
57385;SDS011;71829;56.976;21.958;2024-03-29T05:32:08;14.82;;;5.88;;
57385;SDS011;71829;56.976;21.958;2024-03-29T05:34:37;17.13;;;6.10;;
57385;SDS011;71829;56.976;21.958;2024-03-29T05:37:06;17.50;;;6.05;;
57385;SDS011;71829;56.976;21.958;2024-03-29T05:39:33;16.35;;;6.22;;
57385;SDS011;71829;56.976;21.958;2024-03-29T05:42:00;17.10;;;7.47;;
57385;SDS011;71829;56.976;21.958;2024-03-29T05:44:27;17.92;;;6.55;;
57385;SDS011;71829;56.976;21.958;2024-03-29T05:46:54;18.67;;;7.35;;
57385;SDS011;71829;56.976;21.958;2024-03-29T05:49:20;18.98;;;6.57;;
57385;SDS011;71829;56.976;21.958;2024-03-29T05:51:47;17.05;;;7.15;;
57385;SDS011;71829;56.976;21.958;2024-03-29T05:54:15;18.98;;;7.10;;
57385;SDS011;71829;56.976;21.958;2024-03-29T05:56:42;17.55;;;5.78;;
57385;SDS011;71829;56.976;21.958;2024-03-29T05:59:26;18.63;;;6.97;;
57385;SDS011;71829;56.976;21.958;2024-03-29T06:01:53;16.98;;;5.15;;
57385;SDS011;71829;56.976;21.958;2024-03-29T06:04:19;15.88;;;6.18;;
57385;SDS011;71829;56.976;21.958;2024-03-29T06:06:54;19.25;;;6.00;;
57385;SDS011;71829;56.976;21.958;2024-03-29T06:09:21;17.75;;;5.88;;
57385;SDS011;71829;56.976;21.958;2024-03-29T06:11:47;15.68;;;5.90;;
57385;SDS011;71829;56.976;21.958;2024-03-29T06:14:13;19.73;;;5.57;;
57385;SDS011;71829;56.976;21.958;2024-03-29T06:16:58;13.45;;;5.75;;
57385;SDS011;71829;56.976;21.958;2024-03-29T06:19:43;14.55;;;5.38;;
57385;SDS011;71829;56.976;21.958;2024-03-29T06:22:10;16.65;;;6.10;;
57385;SDS011;71829;56.976;21.958;2024-03-29T06:24:36;15.20;;;5.70;;
57385;SDS011;71829;56.976;21.958;2024-03-29T06:27:04;18.83;;;5.70;;
57385;SDS011;71829;56.976;21.958;2024-03-29T06:29:32;16.27;;;4.60;;
57385;SDS011;71829;56.976;21.958;2024-03-29T06:31:59;15.93;;;5.82;;
57385;SDS011;71829;56.976;21.958;2024-03-29T06:34:26;14.60;;;6.22;;
57385;SDS011;71829;56.976;21.958;2024-03-29T06:36:52;11.88;;;4.07;;
57385;SDS011;71829;56.976;21.958;2024-03-29T06:39:18;15.27;;;4.68;;
57385;SDS011;71829;56.976;21.958;2024-03-29T06:41:45;13.43;;;5.78;;
57385;SDS011;71829;56.976;21.958;2024-03-29T06:44:12;16.52;;;6.20;;
57385;SDS011;71829;56.976;21.958;2024-03-29T06:46:38;14.02;;;4.63;;
57385;SDS011;71829;56.976;21.958;2024-03-29T06:49:05;12.43;;;3.60;;
57385;SDS011;71829;56.976;21.958;2024-03-29T06:51:32;13.52;;;3.78;;
57385;SDS011;71829;56.976;21.958;2024-03-29T06:53:58;12.32;;;4.07;;
57385;SDS011;71829;56.976;21.958;2024-03-29T06:56:24;12.20;;;4.82;;
57385;SDS011;71829;56.976;21.958;2024-03-29T06:58:51;10.73;;;3.90;;
57385;SDS011;71829;56.976;21.958;2024-03-29T07:01:17;13.77;;;3.83;;
57385;SDS011;71829;56.976;21.958;2024-03-29T07:03:43;11.45;;;3.90;;
57385;SDS011;71829;56.976;21.958;2024-03-29T07:06:10;11.15;;;3.83;;
57385;SDS011;71829;56.976;21.958;2024-03-29T07:08:36;14.13;;;4.53;;
57385;SDS011;71829;56.976;21.958;2024-03-29T07:11:21;13.40;;;3.17;;
57385;SDS011;71829;56.976;21.958;2024-03-29T07:13:47;13.00;;;4.10;;
57385;SDS011;71829;56.976;21.958;2024-03-29T07:16:13;11.45;;;3.72;;
57385;SDS011;71829;56.976;21.958;2024-03-29T07:18:40;11.90;;;3.38;;
57385;SDS011;71829;56.976;21.958;2024-03-29T07:21:06;9.13;;;2.60;;
57385;SDS011;71829;56.976;21.958;2024-03-29T07:23:33;11.43;;;3.08;;
57385;SDS011;71829;56.976;21.958;2024-03-29T07:26:03;9.48;;;2.75;;
57385;SDS011;71829;56.976;21.958;2024-03-29T07:28:29;12.43;;;2.22;;
57385;SDS011;71829;56.976;21.958;2024-03-29T07:30:56;7.97;;;2.70;;
57385;SDS011;71829;56.976;21.958;2024-03-29T07:33:23;11.38;;;2.75;;
57385;SDS011;71829;56.976;21.958;2024-03-29T07:35:52;10.88;;;2.60;;
57385;SDS011;71829;56.976;21.958;2024-03-29T07:38:19;9.77;;;2.42;;
57385;SDS011;71829;56.976;21.958;2024-03-29T07:40:52;5.63;;;1.80;;
57385;SDS011;71829;56.976;21.958;2024-03-29T07:43:21;9.23;;;2.13;;
57385;SDS011;71829;56.976;21.958;2024-03-29T07:45:48;9.13;;;2.47;;
57385;SDS011;71829;56.976;21.958;2024-03-29T07:48:15;13.27;;;2.83;;
57385;SDS011;71829;56.976;21.958;2024-03-29T07:51:00;6.85;;;1.60;;
57385;SDS011;71829;56.976;21.958;2024-03-29T07:53:27;6.63;;;2.47;;
57385;SDS011;71829;56.976;21.958;2024-03-29T07:55:53;7.25;;;1.65;;
57385;SDS011;71829;56.976;21.958;2024-03-29T07:58:20;6.72;;;1.90;;
57385;SDS011;71829;56.976;21.958;2024-03-29T08:00:47;6.80;;;2.25;;
57385;SDS011;71829;56.976;21.958;2024-03-29T08:03:13;7.55;;;3.05;;
57385;SDS011;71829;56.976;21.958;2024-03-29T08:05:58;7.15;;;2.33;;
57385;SDS011;71829;56.976;21.958;2024-03-29T08:08:43;7.60;;;2.35;;
57385;SDS011;71829;56.976;21.958;2024-03-29T08:11:28;8.80;;;2.50;;
57385;SDS011;71829;56.976;21.958;2024-03-29T08:13:55;6.43;;;1.50;;
57385;SDS011;71829;56.976;21.958;2024-03-29T08:16:21;6.07;;;0.90;;
57385;SDS011;71829;56.976;21.958;2024-03-29T08:18:48;7.03;;;1.10;;
57385;SDS011;71829;56.976;21.958;2024-03-29T08:21:14;8.18;;;1.52;;
57385;SDS011;71829;56.976;21.958;2024-03-29T08:23:41;10.40;;;1.35;;
57385;SDS011;71829;56.976;21.958;2024-03-29T08:26:10;4.00;;;0.70;;
57385;SDS011;71829;56.976;21.958;2024-03-29T08:28:37;5.05;;;0.90;;
57385;SDS011;71829;56.976;21.958;2024-03-29T08:31:04;6.57;;;0.70;;
57385;SDS011;71829;56.976;21.958;2024-03-29T08:33:31;8.07;;;1.10;;
57385;SDS011;71829;56.976;21.958;2024-03-29T08:35:58;6.18;;;0.90;;
57385;SDS011;71829;56.976;21.958;2024-03-29T08:38:24;5.57;;;0.60;;
57385;SDS011;71829;56.976;21.958;2024-03-29T08:40:50;5.35;;;0.70;;
57385;SDS011;71829;56.976;21.958;2024-03-29T08:43:17;3.33;;;0.50;;
57385;SDS011;71829;56.976;21.958;2024-03-29T08:45:44;5.65;;;0.88;;
57385;SDS011;71829;56.976;21.958;2024-03-29T08:48:10;6.53;;;0.77;;
57385;SDS011;71829;56.976;21.958;2024-03-29T08:50:37;4.30;;;1.25;;
57385;SDS011;71829;56.976;21.958;2024-03-29T08:53:03;5.18;;;0.82;;
57385;SDS011;71829;56.976;21.958;2024-03-29T08:55:30;6.65;;;0.77;;
57385;SDS011;71829;56.976;21.958;2024-03-29T08:58:00;3.75;;;0.77;;
57385;SDS011;71829;56.976;21.958;2024-03-29T09:03:12;5.20;;;0.60;;
57385;SDS011;71829;56.976;21.958;2024-03-29T09:05:57;7.35;;;0.90;;
57385;SDS011;71829;56.976;21.958;2024-03-29T09:08:23;6.05;;;0.70;;
57385;SDS011;71829;56.976;21.958;2024-03-29T09:10:49;5.13;;;0.77;;
57385;SDS011;71829;56.976;21.958;2024-03-29T09:13:16;2.33;;;0.32;;
57385;SDS011;71829;56.976;21.958;2024-03-29T09:16:00;6.95;;;0.90;;
57385;SDS011;71829;56.976;21.958;2024-03-29T09:20:57;3.92;;;0.57;;
57385;SDS011;71829;56.976;21.958;2024-03-29T09:23:25;3.83;;;0.40;;
57385;SDS011;71829;56.976;21.958;2024-03-29T09:25:52;3.58;;;0.50;;
57385;SDS011;71829;56.976;21.958;2024-03-29T09:28:19;3.28;;;0.60;;
57385;SDS011;71829;56.976;21.958;2024-03-29T09:30:47;5.45;;;0.77;;
57385;SDS011;71829;56.976;21.958;2024-03-29T09:33:13;3.80;;;0.60;;
57385;SDS011;71829;56.976;21.958;2024-03-29T09:35:40;5.05;;;0.60;;
57385;SDS011;71829;56.976;21.958;2024-03-29T09:38:06;4.82;;;0.60;;
57385;SDS011;71829;56.976;21.958;2024-03-29T09:40:33;3.70;;;0.40;;
57385;SDS011;71829;56.976;21.958;2024-03-29T09:43:00;4.70;;;0.60;;
57385;SDS011;71829;56.976;21.958;2024-03-29T09:45:30;2.92;;;0.47;;
57385;SDS011;71829;56.976;21.958;2024-03-29T09:48:01;3.65;;;0.60;;
57385;SDS011;71829;56.976;21.958;2024-03-29T09:50:28;5.95;;;1.08;;
57385;SDS011;71829;56.976;21.958;2024-03-29T09:52:54;3.75;;;0.70;;
57385;SDS011;71829;56.976;21.958;2024-03-29T09:55:21;6.07;;;0.75;;
57385;SDS011;71829;56.976;21.958;2024-03-29T09:57:48;5.30;;;0.60;;
57385;SDS011;71829;56.976;21.958;2024-03-29T10:00:15;3.30;;;0.70;;
57385;SDS011;71829;56.976;21.958;2024-03-29T10:02:41;3.60;;;0.50;;
57385;SDS011;71829;56.976;21.958;2024-03-29T10:05:08;3.55;;;0.63;;
57385;SDS011;71829;56.976;21.958;2024-03-29T10:07:34;3.92;;;0.60;;
57385;SDS011;71829;56.976;21.958;2024-03-29T10:10:02;4.82;;;0.75;;
57385;SDS011;71829;56.976;21.958;2024-03-29T10:12:28;5.05;;;0.80;;
57385;SDS011;71829;56.976;21.958;2024-03-29T10:14:55;6.90;;;0.60;;
57385;SDS011;71829;56.976;21.958;2024-03-29T10:17:34;3.90;;;0.60;;
57385;SDS011;71829;56.976;21.958;2024-03-29T10:20:04;3.65;;;0.95;;
57385;SDS011;71829;56.976;21.958;2024-03-29T10:22:35;3.88;;;0.70;;
57385;SDS011;71829;56.976;21.958;2024-03-29T10:25:02;4.80;;;0.73;;
57385;SDS011;71829;56.976;21.958;2024-03-29T10:27:29;7.45;;;1.00;;
57385;SDS011;71829;56.976;21.958;2024-03-29T10:29:56;5.90;;;0.90;;
57385;SDS011;71829;56.976;21.958;2024-03-29T10:32:22;5.65;;;0.93;;
57385;SDS011;71829;56.976;21.958;2024-03-29T10:34:49;4.85;;;0.90;;
57385;SDS011;71829;56.976;21.958;2024-03-29T10:37:15;4.45;;;1.33;;
57385;SDS011;71829;56.976;21.958;2024-03-29T10:39:44;5.70;;;1.02;;
57385;SDS011;71829;56.976;21.958;2024-03-29T10:42:10;5.13;;;0.80;;
57385;SDS011;71829;56.976;21.958;2024-03-29T10:44:38;8.93;;;0.95;;
57385;SDS011;71829;56.976;21.958;2024-03-29T10:47:05;7.20;;;1.50;;
57385;SDS011;71829;56.976;21.958;2024-03-29T10:49:32;4.22;;;0.77;;
57385;SDS011;71829;56.976;21.958;2024-03-29T10:51:59;6.95;;;0.98;;
57385;SDS011;71829;56.976;21.958;2024-03-29T10:54:28;5.60;;;1.00;;
57385;SDS011;71829;56.976;21.958;2024-03-29T10:57:02;7.32;;;1.52;;
57385;SDS011;71829;56.976;21.958;2024-03-29T10:59:34;5.32;;;0.95;;
57385;SDS011;71829;56.976;21.958;2024-03-29T11:02:08;4.22;;;1.13;;
57385;SDS011;71829;56.976;21.958;2024-03-29T11:04:38;3.28;;;0.80;;
57385;SDS011;71829;56.976;21.958;2024-03-29T11:07:11;5.35;;;1.00;;
57385;SDS011;71829;56.976;21.958;2024-03-29T11:09:39;4.53;;;0.73;;
57385;SDS011;71829;56.976;21.958;2024-03-29T11:12:06;6.68;;;0.82;;
57385;SDS011;71829;56.976;21.958;2024-03-29T11:14:42;7.78;;;1.08;;
57385;SDS011;71829;56.976;21.958;2024-03-29T11:17:11;4.50;;;0.70;;
57385;SDS011;71829;56.976;21.958;2024-03-29T11:19:39;5.38;;;0.80;;
57385;SDS011;71829;56.976;21.958;2024-03-29T11:22:06;3.80;;;0.77;;
57385;SDS011;71829;56.976;21.958;2024-03-29T11:24:33;8.50;;;1.23;;
57385;SDS011;71829;56.976;21.958;2024-03-29T11:27:09;6.18;;;1.23;;
57385;SDS011;71829;56.976;21.958;2024-03-29T11:29:36;4.25;;;0.80;;
57385;SDS011;71829;56.976;21.958;2024-03-29T11:32:07;3.47;;;0.80;;
57385;SDS011;71829;56.976;21.958;2024-03-29T11:34:33;5.85;;;0.88;;
57385;SDS011;71829;56.976;21.958;2024-03-29T11:37:09;5.63;;;0.82;;
57385;SDS011;71829;56.976;21.958;2024-03-29T11:39:36;5.28;;;0.95;;
57385;SDS011;71829;56.976;21.958;2024-03-29T11:42:02;6.25;;;0.98;;
57385;SDS011;71829;56.976;21.958;2024-03-29T11:44:29;4.75;;;0.75;;
57385;SDS011;71829;56.976;21.958;2024-03-29T11:46:58;5.03;;;0.80;;
57385;SDS011;71829;56.976;21.958;2024-03-29T11:49:25;4.40;;;0.80;;
57385;SDS011;71829;56.976;21.958;2024-03-29T11:52:01;4.60;;;0.70;;
57385;SDS011;71829;56.976;21.958;2024-03-29T11:54:28;3.30;;;0.50;;
57385;SDS011;71829;56.976;21.958;2024-03-29T11:56:55;4.13;;;0.50;;
57385;SDS011;71829;56.976;21.958;2024-03-29T11:59:21;4.35;;;0.70;;
57385;SDS011;71829;56.976;21.958;2024-03-29T12:01:48;3.53;;;0.95;;
57385;SDS011;71829;56.976;21.958;2024-03-29T12:04:20;3.72;;;0.93;;
57385;SDS011;71829;56.976;21.958;2024-03-29T12:06:48;3.47;;;0.60;;
57385;SDS011;71829;56.976;21.958;2024-03-29T12:09:15;6.88;;;0.80;;
57385;SDS011;71829;56.976;21.958;2024-03-29T12:11:45;5.15;;;0.57;;
57385;SDS011;71829;56.976;21.958;2024-03-29T12:14:12;3.97;;;0.65;;
57385;SDS011;71829;56.976;21.958;2024-03-29T12:16:42;6.07;;;0.90;;
57385;SDS011;71829;56.976;21.958;2024-03-29T12:21:36;6.18;;;0.60;;
57385;SDS011;71829;56.976;21.958;2024-03-29T12:24:02;8.55;;;1.05;;
57385;SDS011;71829;56.976;21.958;2024-03-29T12:26:29;4.80;;;0.77;;
57385;SDS011;71829;56.976;21.958;2024-03-29T12:28:56;10.52;;;2.90;;
57385;SDS011;71829;56.976;21.958;2024-03-29T12:31:23;6.90;;;1.02;;
57385;SDS011;71829;56.976;21.958;2024-03-29T12:33:52;8.35;;;1.58;;
57385;SDS011;71829;56.976;21.958;2024-03-29T12:36:22;8.05;;;1.48;;
57385;SDS011;71829;56.976;21.958;2024-03-29T12:38:49;6.35;;;1.30;;
57385;SDS011;71829;56.976;21.958;2024-03-29T12:41:17;6.75;;;1.25;;
57385;SDS011;71829;56.976;21.958;2024-03-29T12:43:44;5.55;;;0.82;;
57385;SDS011;71829;56.976;21.958;2024-03-29T12:46:11;6.30;;;1.42;;
57385;SDS011;71829;56.976;21.958;2024-03-29T12:48:37;7.90;;;1.38;;
57385;SDS011;71829;56.976;21.958;2024-03-29T12:51:04;6.43;;;1.55;;
57385;SDS011;71829;56.976;21.958;2024-03-29T12:53:32;9.05;;;3.20;;
57385;SDS011;71829;56.976;21.958;2024-03-29T12:55:59;8.85;;;1.83;;
57385;SDS011;71829;56.976;21.958;2024-03-29T12:58:25;7.90;;;2.00;;
57385;SDS011;71829;56.976;21.958;2024-03-29T13:00:52;10.80;;;2.17;;
57385;SDS011;71829;56.976;21.958;2024-03-29T13:03:19;6.15;;;1.65;;
57385;SDS011;71829;56.976;21.958;2024-03-29T13:05:46;5.95;;;1.38;;
57385;SDS011;71829;56.976;21.958;2024-03-29T13:08:12;6.43;;;1.30;;
57385;SDS011;71829;56.976;21.958;2024-03-29T13:10:43;8.27;;;1.77;;
57385;SDS011;71829;56.976;21.958;2024-03-29T13:13:10;16.58;;;1.55;;
57385;SDS011;71829;56.976;21.958;2024-03-29T13:15:38;7.78;;;1.92;;
57385;SDS011;71829;56.976;21.958;2024-03-29T13:18:05;9.82;;;2.15;;
57385;SDS011;71829;56.976;21.958;2024-03-29T13:20:32;9.30;;;2.35;;
57385;SDS011;71829;56.976;21.958;2024-03-29T13:23:01;7.75;;;2.00;;
57385;SDS011;71829;56.976;21.958;2024-03-29T13:25:28;7.35;;;2.35;;
57385;SDS011;71829;56.976;21.958;2024-03-29T13:27:54;7.57;;;1.27;;
57385;SDS011;71829;56.976;21.958;2024-03-29T13:30:24;7.03;;;1.75;;
57385;SDS011;71829;56.976;21.958;2024-03-29T13:32:51;7.45;;;1.60;;
57385;SDS011;71829;56.976;21.958;2024-03-29T13:35:18;5.40;;;1.25;;
57385;SDS011;71829;56.976;21.958;2024-03-29T13:37:48;7.53;;;1.50;;
57385;SDS011;71829;56.976;21.958;2024-03-29T13:40:15;6.75;;;1.40;;
57385;SDS011;71829;56.976;21.958;2024-03-29T13:42:42;9.00;;;1.38;;
57385;SDS011;71829;56.976;21.958;2024-03-29T13:45:09;6.93;;;1.92;;
57385;SDS011;71829;56.976;21.958;2024-03-29T13:47:39;8.63;;;1.65;;
57385;SDS011;71829;56.976;21.958;2024-03-29T13:50:06;6.57;;;1.83;;
57385;SDS011;71829;56.976;21.958;2024-03-29T13:52:33;5.53;;;1.80;;
57385;SDS011;71829;56.976;21.958;2024-03-29T13:55:00;7.63;;;1.88;;
57385;SDS011;71829;56.976;21.958;2024-03-29T13:57:26;9.05;;;1.73;;
57385;SDS011;71829;56.976;21.958;2024-03-29T13:59:53;7.35;;;1.85;;
57385;SDS011;71829;56.976;21.958;2024-03-29T14:02:19;6.13;;;1.58;;
57385;SDS011;71829;56.976;21.958;2024-03-29T14:04:46;6.78;;;1.60;;
57385;SDS011;71829;56.976;21.958;2024-03-29T14:07:15;7.63;;;1.73;;
57385;SDS011;71829;56.976;21.958;2024-03-29T14:09:46;6.47;;;1.30;;
57385;SDS011;71829;56.976;21.958;2024-03-29T14:12:13;6.07;;;1.73;;
57385;SDS011;71829;56.976;21.958;2024-03-29T14:14:40;5.78;;;1.05;;
57385;SDS011;71829;56.976;21.958;2024-03-29T14:17:09;9.48;;;2.15;;
57385;SDS011;71829;56.976;21.958;2024-03-29T14:19:36;7.97;;;0.90;;
57385;SDS011;71829;56.976;21.958;2024-03-29T14:22:03;5.03;;;1.27;;
57385;SDS011;71829;56.976;21.958;2024-03-29T14:24:29;6.05;;;1.10;;
57385;SDS011;71829;56.976;21.958;2024-03-29T14:27:00;5.07;;;1.05;;
57385;SDS011;71829;56.976;21.958;2024-03-29T14:29:26;5.45;;;1.40;;
57385;SDS011;71829;56.976;21.958;2024-03-29T14:31:53;7.72;;;1.13;;
57385;SDS011;71829;56.976;21.958;2024-03-29T14:34:20;6.03;;;1.27;;
57385;SDS011;71829;56.976;21.958;2024-03-29T14:36:47;9.85;;;1.48;;
57385;SDS011;71829;56.976;21.958;2024-03-29T14:39:13;9.88;;;1.92;;
57385;SDS011;71829;56.976;21.958;2024-03-29T14:41:41;7.20;;;2.17;;
57385;SDS011;71829;56.976;21.958;2024-03-29T14:44:08;10.02;;;1.80;;
57385;SDS011;71829;56.976;21.958;2024-03-29T14:46:35;10.85;;;2.20;;
57385;SDS011;71829;56.976;21.958;2024-03-29T14:49:02;5.18;;;1.40;;